sensor_id;sensor_type;location;lat;lon;timestamp;temperature;humidity
62259;DHT22;48241;48.824;10.102;2023-02-05T05:39:28;2.90;90.90
62259;DHT22;48241;48.824;10.102;2023-02-05T05:42:13;3.00;91.20
62259;DHT22;48241;48.824;10.102;2023-02-05T05:44:56;3.10;90.70
62259;DHT22;48241;48.824;10.102;2023-02-05T05:47:22;3.10;91.00
62259;DHT22;48241;48.824;10.102;2023-02-05T05:49:48;3.20;91.50
62259;DHT22;48241;48.824;10.102;2023-02-05T05:52:13;3.20;91.50
62259;DHT22;48241;48.824;10.102;2023-02-05T05:54:39;3.30;91.70
62259;DHT22;48241;48.824;10.102;2023-02-05T05:57:06;3.40;91.30
62259;DHT22;48241;48.824;10.102;2023-02-05T05:59:32;3.40;91.50
62259;DHT22;48241;48.824;10.102;2023-02-05T06:02:09;3.60;91.30
62259;DHT22;48241;48.824;10.102;2023-02-05T06:04:34;3.70;91.50
62259;DHT22;48241;48.824;10.102;2023-02-05T06:07:00;3.40;91.60
62259;DHT22;48241;48.824;10.102;2023-02-05T06:09:26;3.80;91.60
62259;DHT22;48241;48.824;10.102;2023-02-05T06:11:52;3.90;90.80
62259;DHT22;48241;48.824;10.102;2023-02-05T06:14:18;3.70;89.20
62259;DHT22;48241;48.824;10.102;2023-02-05T06:16:43;3.80;90.40
62259;DHT22;48241;48.824;10.102;2023-02-05T06:19:09;3.80;90.60
62259;DHT22;48241;48.824;10.102;2023-02-05T06:21:35;3.80;90.20
62259;DHT22;48241;48.824;10.102;2023-02-05T06:24:00;3.80;90.30
62259;DHT22;48241;48.824;10.102;2023-02-05T06:26:26;3.70;90.50
62259;DHT22;48241;48.824;10.102;2023-02-05T06:28:52;3.80;90.70
62259;DHT22;48241;48.824;10.102;2023-02-05T06:31:17;4.00;90.10
62259;DHT22;48241;48.824;10.102;2023-02-05T06:33:43;3.90;90.00
62259;DHT22;48241;48.824;10.102;2023-02-05T06:36:09;3.90;90.40
62259;DHT22;48241;48.824;10.102;2023-02-05T06:38:35;3.70;90.70
62259;DHT22;48241;48.824;10.102;2023-02-05T06:41:00;3.90;90.20
62259;DHT22;48241;48.824;10.102;2023-02-05T06:43:26;3.80;90.30
62259;DHT22;48241;48.824;10.102;2023-02-05T06:45:52;3.80;90.00
62259;DHT22;48241;48.824;10.102;2023-02-05T06:48:18;3.90;90.00
62259;DHT22;48241;48.824;10.102;2023-02-05T06:50:43;3.80;90.00
62259;DHT22;48241;48.824;10.102;2023-02-05T06:53:14;3.80;89.60
62259;DHT22;48241;48.824;10.102;2023-02-05T06:56:08;3.90;89.40
62259;DHT22;48241;48.824;10.102;2023-02-05T07:02:26;4.00;89.50
62259;DHT22;48241;48.824;10.102;2023-02-05T07:05:37;4.00;89.50
62259;DHT22;48241;48.824;10.102;2023-02-05T07:11:45;3.80;90.10
62259;DHT22;48241;48.824;10.102;2023-02-05T07:14:16;4.00;88.90
62259;DHT22;48241;48.824;10.102;2023-02-05T07:27:11;4.30;90.60
62259;DHT22;48241;48.824;10.102;2023-02-05T07:29:36;4.40;90.50
62259;DHT22;48241;48.824;10.102;2023-02-05T07:32:02;4.80;89.10
62259;DHT22;48241;48.824;10.102;2023-02-05T07:34:28;4.90;88.00
62259;DHT22;48241;48.824;10.102;2023-02-05T07:36:54;5.20;85.80
62259;DHT22;48241;48.824;10.102;2023-02-05T07:39:19;5.50;85.80
62259;DHT22;48241;48.824;10.102;2023-02-05T07:41:45;5.50;86.40
62259;DHT22;48241;48.824;10.102;2023-02-05T07:44:11;5.70;85.80
62259;DHT22;48241;48.824;10.102;2023-02-05T07:46:37;6.00;85.20
62259;DHT22;48241;48.824;10.102;2023-02-05T07:49:03;6.30;83.30
62259;DHT22;48241;48.824;10.102;2023-02-05T07:51:31;6.60;81.90
62259;DHT22;48241;48.824;10.102;2023-02-05T07:53:57;6.80;81.30
62259;DHT22;48241;48.824;10.102;2023-02-05T07:56:23;6.90;79.90
62259;DHT22;48241;48.824;10.102;2023-02-05T07:58:51;6.90;80.00
62259;DHT22;48241;48.824;10.102;2023-02-05T08:01:17;7.10;79.00
62259;DHT22;48241;48.824;10.102;2023-02-05T08:03:42;6.90;79.80
62259;DHT22;48241;48.824;10.102;2023-02-05T08:06:11;6.90;79.80
62259;DHT22;48241;48.824;10.102;2023-02-05T08:08:38;6.90;78.70
62259;DHT22;48241;48.824;10.102;2023-02-05T08:11:05;6.90;78.50
62259;DHT22;48241;48.824;10.102;2023-02-05T08:13:32;6.80;80.10
62259;DHT22;48241;48.824;10.102;2023-02-05T08:15:58;6.70;81.70
62259;DHT22;48241;48.824;10.102;2023-02-05T08:18:28;6.60;81.60
62259;DHT22;48241;48.824;10.102;2023-02-05T08:20:54;6.60;79.90
62259;DHT22;48241;48.824;10.102;2023-02-05T08:23:20;6.50;80.40
62259;DHT22;48241;48.824;10.102;2023-02-05T08:25:46;6.40;80.20
62259;DHT22;48241;48.824;10.102;2023-02-05T08:28:12;6.60;80.40
62259;DHT22;48241;48.824;10.102;2023-02-05T08:30:38;6.70;80.50
62259;DHT22;48241;48.824;10.102;2023-02-05T08:33:04;6.80;79.80
62259;DHT22;48241;48.824;10.102;2023-02-05T08:35:30;7.00;79.70
62259;DHT22;48241;48.824;10.102;2023-02-05T08:37:56;6.90;78.10
62259;DHT22;48241;48.824;10.102;2023-02-05T08:40:22;7.00;78.90
62259;DHT22;48241;48.824;10.102;2023-02-05T08:42:48;6.90;78.30
62259;DHT22;48241;48.824;10.102;2023-02-05T08:45:17;6.90;79.20
62259;DHT22;48241;48.824;10.102;2023-02-05T08:47:43;7.20;78.40
62259;DHT22;48241;48.824;10.102;2023-02-05T08:50:09;7.40;77.00
62259;DHT22;48241;48.824;10.102;2023-02-05T08:52:36;7.40;77.20
62259;DHT22;48241;48.824;10.102;2023-02-05T08:55:02;7.30;74.40
62259;DHT22;48241;48.824;10.102;2023-02-05T08:57:28;7.20;74.00
62259;DHT22;48241;48.824;10.102;2023-02-05T08:59:54;7.10;73.00
62259;DHT22;48241;48.824;10.102;2023-02-05T09:02:20;7.20;74.50
62259;DHT22;48241;48.824;10.102;2023-02-05T09:04:46;6.70;75.30
62259;DHT22;48241;48.824;10.102;2023-02-05T09:07:11;7.00;75.90
62259;DHT22;48241;48.824;10.102;2023-02-05T09:09:37;6.90;76.60
62259;DHT22;48241;48.824;10.102;2023-02-05T09:12:03;7.00;76.80
62259;DHT22;48241;48.824;10.102;2023-02-05T09:14:28;6.90;76.70
62259;DHT22;48241;48.824;10.102;2023-02-05T09:17:09;7.00;77.40
62259;DHT22;48241;48.824;10.102;2023-02-05T09:19:37;7.00;76.00
62259;DHT22;48241;48.824;10.102;2023-02-05T09:22:06;7.00;77.00
62259;DHT22;48241;48.824;10.102;2023-02-05T09:24:33;7.30;76.90
62259;DHT22;48241;48.824;10.102;2023-02-05T09:26:58;7.40;75.80
62259;DHT22;48241;48.824;10.102;2023-02-05T09:29:24;7.30;75.80
62259;DHT22;48241;48.824;10.102;2023-02-05T09:31:50;7.50;75.80
62259;DHT22;48241;48.824;10.102;2023-02-05T09:34:16;7.20;75.90
62259;DHT22;48241;48.824;10.102;2023-02-05T09:36:41;7.80;75.60
62259;DHT22;48241;48.824;10.102;2023-02-05T09:39:08;8.10;73.20
62259;DHT22;48241;48.824;10.102;2023-02-05T09:41:48;8.00;73.10
62259;DHT22;48241;48.824;10.102;2023-02-05T09:44:37;7.70;74.00
62259;DHT22;48241;48.824;10.102;2023-02-05T23:01:39;4.90;94.10
62259;DHT22;48241;48.824;10.102;2023-02-05T23:04:06;4.50;93.90
62259;DHT22;48241;48.824;10.102;2023-02-05T23:06:34;4.10;95.20
62259;DHT22;48241;48.824;10.102;2023-02-05T23:09:17;4.40;95.40
62259;DHT22;48241;48.824;10.102;2023-02-05T23:11:44;4.40;94.90
62259;DHT22;48241;48.824;10.102;2023-02-05T23:14:15;4.10;95.40
62259;DHT22;48241;48.824;10.102;2023-02-05T23:20:12;4.00;95.30
62259;DHT22;48241;48.824;10.102;2023-02-05T23:22:38;4.30;94.90
62259;DHT22;48241;48.824;10.102;2023-02-05T23:25:07;4.40;95.10
62259;DHT22;48241;48.824;10.102;2023-02-05T23:27:32;4.30;94.60
62259;DHT22;48241;48.824;10.102;2023-02-05T23:29:58;4.50;94.80
62259;DHT22;48241;48.824;10.102;2023-02-05T23:32:32;4.40;94.10
62259;DHT22;48241;48.824;10.102;2023-02-05T23:34:58;4.20;94.00
62259;DHT22;48241;48.824;10.102;2023-02-05T23:37:24;3.70;94.80
62259;DHT22;48241;48.824;10.102;2023-02-05T23:39:49;3.30;96.20
62259;DHT22;48241;48.824;10.102;2023-02-05T23:42:15;3.60;95.70
62259;DHT22;48241;48.824;10.102;2023-02-05T23:44:41;4.00;95.10
62259;DHT22;48241;48.824;10.102;2023-02-05T23:47:06;4.20;94.60
62259;DHT22;48241;48.824;10.102;2023-02-05T23:49:33;4.30;95.10
62259;DHT22;48241;48.824;10.102;2023-02-05T23:51:59;4.20;93.40
62259;DHT22;48241;48.824;10.102;2023-02-05T23:54:25;4.20;93.30
62259;DHT22;48241;48.824;10.102;2023-02-05T23:56:51;4.20;93.80
62259;DHT22;48241;48.824;10.102;2023-02-05T23:59:17;4.30;93.70
